createdAt,value
2022-11-16T00:00:22.850Z,10.70
2022-11-16T00:02:54.080Z,10.40
2022-11-16T00:05:39.793Z,10.60
2022-11-16T00:08:24.909Z,10.80
2022-11-16T00:10:55.861Z,10.60
2022-11-16T00:13:25.975Z,10.30
2022-11-16T00:15:58.046Z,10.20
2022-11-16T00:18:28.659Z,10.10
2022-11-16T00:21:02.315Z,9.90
2022-11-16T00:23:32.788Z,9.80
2022-11-16T00:26:08.026Z,9.80
2022-11-16T00:28:41.538Z,9.70
2022-11-16T00:31:11.130Z,9.80
2022-11-16T00:33:40.541Z,9.80
2022-11-16T00:36:13.020Z,9.80
2022-11-16T00:38:42.415Z,9.70
2022-11-16T00:41:14.089Z,9.70
2022-11-16T00:43:47.121Z,9.70
2022-11-16T00:46:16.412Z,9.70
2022-11-16T00:48:47.746Z,9.70
2022-11-16T00:51:20.000Z,9.60
2022-11-16T00:53:51.263Z,9.60
2022-11-16T00:56:19.481Z,9.60
2022-11-16T00:58:50.987Z,9.60
2022-11-16T01:01:21.867Z,9.60
2022-11-16T01:03:53.563Z,9.60
2022-11-16T01:06:27.685Z,9.70
2022-11-16T01:08:57.473Z,9.70
2022-11-16T01:11:45.985Z,9.60
2022-11-16T01:14:18.609Z,9.60
2022-11-16T01:16:50.570Z,9.60
2022-11-16T01:19:20.058Z,9.60
2022-11-16T01:21:51.118Z,9.60
2022-11-16T01:24:19.291Z,9.70
2022-11-16T01:26:47.555Z,9.70
2022-11-16T01:29:22.315Z,9.70
2022-11-16T01:31:50.529Z,9.70
2022-11-16T01:34:18.909Z,9.70
2022-11-16T01:36:47.264Z,9.70
2022-11-16T01:39:18.231Z,9.60
2022-11-16T01:41:52.773Z,9.60
2022-11-16T01:44:59.883Z,9.60
2022-11-16T01:47:30.986Z,9.50
2022-11-16T01:50:14.937Z,9.50
2022-11-16T01:52:46.629Z,9.50
2022-11-16T01:55:16.817Z,9.60
2022-11-16T01:57:46.986Z,9.60
2022-11-16T02:00:16.962Z,9.60
2022-11-16T02:02:46.801Z,9.50
2022-11-16T02:05:18.184Z,9.60
2022-11-16T02:08:23.534Z,9.60
2022-11-16T02:11:05.928Z,9.60
2022-11-16T02:13:44.484Z,9.80
2022-11-16T02:16:23.405Z,9.80
2022-11-16T02:19:03.315Z,9.90
2022-11-16T02:21:44.106Z,9.90
2022-11-16T02:24:42.277Z,9.90
2022-11-16T02:27:54.681Z,9.90
2022-11-16T02:30:25.208Z,9.90
2022-11-16T02:33:02.436Z,9.60
2022-11-16T02:35:35.067Z,9.70
2022-11-16T02:38:08.368Z,9.70
2022-11-16T02:40:43.423Z,9.70
2022-11-16T02:43:17.883Z,9.80
2022-11-16T02:45:52.357Z,9.80
2022-11-16T02:48:34.020Z,9.80
2022-11-16T02:51:09.481Z,9.70
2022-11-16T02:53:42.466Z,9.70
2022-11-16T02:56:14.373Z,9.70
2022-11-16T02:58:42.868Z,9.80
2022-11-16T03:01:17.514Z,9.80
2022-11-16T03:03:53.939Z,9.80
2022-11-16T03:06:27.675Z,9.70
2022-11-16T03:09:06.584Z,9.80
2022-11-16T03:11:56.416Z,9.70
2022-11-16T03:14:29.010Z,9.80
2022-11-16T03:17:03.120Z,9.80
2022-11-16T03:19:41.203Z,9.70
2022-11-16T03:22:16.757Z,9.70
2022-11-16T03:24:47.150Z,9.70
2022-11-16T03:27:25.827Z,9.50
2022-11-16T03:30:04.164Z,9.50
2022-11-16T03:32:47.113Z,9.30
2022-11-16T03:35:24.178Z,9.20
2022-11-16T03:37:57.604Z,9.10
2022-11-16T03:40:33.528Z,9.00
2022-11-16T03:43:08.224Z,9.00
2022-11-16T03:45:43.211Z,9.00
2022-11-16T03:48:34.771Z,8.90
2022-11-16T03:51:05.173Z,9.00
2022-11-16T03:53:33.350Z,9.00
2022-11-16T03:56:04.045Z,8.90
2022-11-16T03:58:39.065Z,8.90
2022-11-16T04:01:09.798Z,8.90
2022-11-16T04:03:39.409Z,8.90
2022-11-16T04:06:25.571Z,8.80
2022-11-16T04:09:10.942Z,8.80
2022-11-16T04:11:58.697Z,8.80
2022-11-16T04:14:47.403Z,8.80
2022-11-16T04:17:47.454Z,8.80
2022-11-16T04:20:35.943Z,8.80
2022-11-16T04:23:27.128Z,8.80
2022-11-16T04:25:59.411Z,8.90
2022-11-16T04:28:32.085Z,8.80
2022-11-16T04:31:25.208Z,8.90
2022-11-16T04:34:12.820Z,8.90
2022-11-16T04:40:13.638Z,8.80
2022-11-16T04:42:45.527Z,8.80
2022-11-16T04:51:31.683Z,8.80
2022-11-16T04:54:09.565Z,8.90
2022-11-16T04:56:40.287Z,8.90
2022-11-16T04:59:08.604Z,8.90
2022-11-16T05:02:09.550Z,9.00
2022-11-16T05:04:42.136Z,9.00
2022-11-16T05:07:23.668Z,8.90
2022-11-16T05:09:56.363Z,9.00
2022-11-16T05:15:41.755Z,9.00
2022-11-16T05:21:12.957Z,9.00
2022-11-16T05:26:58.726Z,9.00
2022-11-16T05:29:29.759Z,8.80
2022-11-16T05:32:07.972Z,8.90
2022-11-16T05:34:37.766Z,8.70
2022-11-16T05:37:09.978Z,8.90
2022-11-16T05:39:39.801Z,8.80
2022-11-16T05:42:18.627Z,8.80
2022-11-16T05:51:18.197Z,8.80
2022-11-16T05:53:59.934Z,8.80
2022-11-16T06:00:50.827Z,8.90
2022-11-16T06:03:52.282Z,9.00
2022-11-16T06:06:50.925Z,8.90
2022-11-16T06:12:42.087Z,9.00
2022-11-16T06:19:27.011Z,9.10
2022-11-16T06:25:56.732Z,9.10
2022-11-16T06:32:00.370Z,8.90
2022-11-16T06:34:34.273Z,9.10
2022-11-16T06:37:13.851Z,8.90
2022-11-16T06:43:12.942Z,9.10
2022-11-16T06:45:41.650Z,9.10
2022-11-16T06:51:15.435Z,9.00
2022-11-16T06:53:55.751Z,9.00
2022-11-16T06:56:47.642Z,9.00
2022-11-16T06:59:20.999Z,9.10
2022-11-16T07:01:49.596Z,9.20
2022-11-16T07:04:18.329Z,9.30
2022-11-16T07:07:05.975Z,9.20
2022-11-16T07:09:44.304Z,9.20
2022-11-16T07:12:20.429Z,9.20
2022-11-16T07:14:53.330Z,9.30
2022-11-16T07:20:27.892Z,9.30
2022-11-16T07:23:00.589Z,9.10
2022-11-16T07:31:44.139Z,9.10
2022-11-16T07:34:12.332Z,9.00
2022-11-16T07:36:59.177Z,9.10
2022-11-16T07:39:34.018Z,9.00
2022-11-16T07:42:07.276Z,9.00
2022-11-16T07:44:41.261Z,9.10
2022-11-16T07:47:10.145Z,9.00
2022-11-16T07:49:42.491Z,9.10
2022-11-16T07:52:11.124Z,9.10
2022-11-16T07:54:41.905Z,9.10
2022-11-16T07:57:10.250Z,9.10
2022-11-16T07:59:38.824Z,8.90
2022-11-16T08:02:07.424Z,8.80
2022-11-16T08:04:39.850Z,9.00
2022-11-16T08:10:12.867Z,8.90
2022-11-16T08:13:06.067Z,9.00
2022-11-16T08:15:39.722Z,8.80
2022-11-16T08:18:08.595Z,9.00
2022-11-16T08:27:25.331Z,8.90
2022-11-16T08:29:53.628Z,9.10
2022-11-16T08:32:32.552Z,8.90
2022-11-16T08:35:19.712Z,9.00
2022-11-16T08:38:39.534Z,8.90
2022-11-16T08:44:53.087Z,9.20
2022-11-16T08:47:24.758Z,9.10
2022-11-16T08:49:58.369Z,9.20
2022-11-16T08:52:48.314Z,9.30
2022-11-16T08:55:18.932Z,9.40
2022-11-16T08:57:50.569Z,9.50
2022-11-16T09:00:21.095Z,9.60
2022-11-16T09:02:51.549Z,9.70
2022-11-16T09:05:20.080Z,9.70
2022-11-16T09:07:48.649Z,9.90
2022-11-16T09:10:19.055Z,9.90
2022-11-16T09:12:49.107Z,10.20
2022-11-16T09:15:21.273Z,10.10
2022-11-16T09:17:54.807Z,10.10
2022-11-16T09:20:23.261Z,10.00
2022-11-16T09:22:51.551Z,10.00
2022-11-16T09:25:19.778Z,10.00
2022-11-16T09:27:48.570Z,10.10
2022-11-16T09:30:23.030Z,10.00
2022-11-16T09:32:52.873Z,10.10
2022-11-16T09:35:22.880Z,10.00
2022-11-16T09:37:51.921Z,10.20
2022-11-16T09:40:21.634Z,10.20
2022-11-16T09:42:58.588Z,10.40
2022-11-16T09:45:32.839Z,10.40
2022-11-16T09:48:06.186Z,10.50
2022-11-16T09:50:48.359Z,10.50
2022-11-16T09:53:31.747Z,10.50
2022-11-16T09:59:15.023Z,10.90
2022-11-16T10:02:03.029Z,11.30
2022-11-16T10:04:56.719Z,11.30
2022-11-16T10:07:32.897Z,11.20
2022-11-16T10:10:53.521Z,11.40
2022-11-16T10:13:53.354Z,11.40
2022-11-16T10:17:02.935Z,11.60
2022-11-16T10:22:43.090Z,11.50
2022-11-16T10:25:17.671Z,11.90
2022-11-16T10:30:46.888Z,12.10
2022-11-16T10:33:25.174Z,11.60
2022-11-16T10:35:59.061Z,11.30
2022-11-16T10:38:34.461Z,11.20
2022-11-16T10:41:16.232Z,11.20
2022-11-16T10:44:08.660Z,11.20
2022-11-16T10:46:41.491Z,11.30
2022-11-16T10:49:17.760Z,11.40
2022-11-16T10:58:54.675Z,11.00
2022-11-16T11:01:38.615Z,11.00
2022-11-16T11:04:46.001Z,11.20
2022-11-16T11:07:55.348Z,11.60
2022-11-16T11:10:31.367Z,11.80
2022-11-16T11:13:20.840Z,12.00
2022-11-16T11:15:51.419Z,12.20
2022-11-16T11:18:34.516Z,12.20
2022-11-16T11:21:10.320Z,12.30
2022-11-16T11:23:54.720Z,12.40
2022-11-16T11:26:41.092Z,12.20
2022-11-16T11:29:28.914Z,12.40
2022-11-16T11:32:01.555Z,12.50
2022-11-16T11:34:42.739Z,12.20
2022-11-16T11:37:21.792Z,12.30
2022-11-16T11:40:46.656Z,12.30
2022-11-16T11:43:36.605Z,12.40
2022-11-16T11:46:20.494Z,12.10
2022-11-16T11:48:57.882Z,12.00
2022-11-16T11:51:35.039Z,12.20
2022-11-16T11:54:27.272Z,12.10
2022-11-16T11:57:11.173Z,12.00
2022-11-16T11:59:54.901Z,12.00
2022-11-16T12:02:52.918Z,12.00
2022-11-16T12:06:04.546Z,12.00
2022-11-16T12:09:25.810Z,12.30
2022-11-16T12:12:07.347Z,12.10
2022-11-16T12:14:59.257Z,12.30
2022-11-16T12:17:40.980Z,12.30
2022-11-16T12:20:54.944Z,12.40
2022-11-16T12:24:06.149Z,12.30
2022-11-16T12:26:51.038Z,12.20
2022-11-16T12:33:08.658Z,12.10
2022-11-16T12:35:54.436Z,11.90
2022-11-16T12:39:02.461Z,12.00
2022-11-16T12:42:46.379Z,11.90
2022-11-16T12:53:04.783Z,11.90
2022-11-16T12:59:37.059Z,12.10
2022-11-16T13:13:35.012Z,12.00
2022-11-16T13:22:05.425Z,12.00
2022-11-16T13:24:53.299Z,12.10
2022-11-16T13:30:43.335Z,12.20
2022-11-16T13:33:28.889Z,12.10
2022-11-16T13:35:58.526Z,12.10
2022-11-16T13:39:09.122Z,11.90
2022-11-16T13:41:45.675Z,11.80
2022-11-16T13:44:31.338Z,11.80
2022-11-16T13:47:05.341Z,11.70
2022-11-16T13:49:51.701Z,11.80
2022-11-16T13:52:31.560Z,11.90
2022-11-16T13:55:31.022Z,11.90
2022-11-16T13:58:04.423Z,11.90
2022-11-16T14:00:35.227Z,12.00
2022-11-16T14:03:39.800Z,11.90
2022-11-16T14:10:16.178Z,11.90
2022-11-16T14:13:37.438Z,11.70
2022-11-16T14:20:34.778Z,11.40
2022-11-16T14:23:17.575Z,11.30
2022-11-16T14:26:14.197Z,11.20
2022-11-16T14:32:38.181Z,11.10
2022-11-16T14:45:31.407Z,11.00
2022-11-16T14:51:56.331Z,10.90
2022-11-16T14:54:39.927Z,10.80
2022-11-16T14:57:14.948Z,10.80
2022-11-16T14:59:49.858Z,10.70
2022-11-16T15:02:43.447Z,10.70
2022-11-16T15:05:54.202Z,10.70
2022-11-16T15:11:48.607Z,10.80
2022-11-16T15:14:28.782Z,10.70
2022-11-16T15:17:13.169Z,10.70
2022-11-16T15:19:55.661Z,10.60
2022-11-16T15:22:32.255Z,10.60
2022-11-16T15:25:17.357Z,10.60
2022-11-16T15:28:47.191Z,10.60
2022-11-16T15:41:11.448Z,10.60
2022-11-16T15:44:11.734Z,10.50
2022-11-16T15:46:40.058Z,10.50
2022-11-16T15:53:34.874Z,10.50
2022-11-16T15:56:47.681Z,10.40
2022-11-16T16:03:23.486Z,10.30
2022-11-16T16:09:54.235Z,10.20
2022-11-16T16:12:32.579Z,10.10
2022-11-16T16:18:44.286Z,10.00
2022-11-16T16:21:30.143Z,10.00
2022-11-16T16:24:05.533Z,10.00
2022-11-16T16:26:40.504Z,10.10
2022-11-16T16:29:12.425Z,10.00
2022-11-16T16:34:37.902Z,10.00
2022-11-16T16:44:14.318Z,9.90
2022-11-16T16:46:52.226Z,9.90
2022-11-16T16:49:26.031Z,9.70
2022-11-16T16:51:54.840Z,9.70
2022-11-16T16:54:25.432Z,9.70
2022-11-16T16:56:57.451Z,9.70
2022-11-16T16:59:42.283Z,9.80
2022-11-16T17:02:13.395Z,9.80
2022-11-16T17:04:44.007Z,9.80
2022-11-16T17:07:12.324Z,9.80
2022-11-16T17:09:40.708Z,9.70
2022-11-16T17:13:00.705Z,9.70
2022-11-16T17:16:29.737Z,9.80
2022-11-16T17:19:07.082Z,9.70
2022-11-16T17:21:36.496Z,9.70
2022-11-16T17:24:05.414Z,9.70
2022-11-16T17:26:34.093Z,9.80
2022-11-16T17:29:23.335Z,9.70
2022-11-16T17:34:59.628Z,9.50
2022-11-16T17:37:50.652Z,9.40
2022-11-16T17:41:12.930Z,9.40
2022-11-16T17:44:18.596Z,9.40
2022-11-16T17:51:04.058Z,9.30
2022-11-16T17:53:54.712Z,9.30
2022-11-16T17:56:27.209Z,9.20
2022-11-16T17:59:07.360Z,9.20
2022-11-16T18:08:41.872Z,9.40
2022-11-16T18:11:24.950Z,9.40
2022-11-16T18:13:55.845Z,9.40
2022-11-16T18:16:26.020Z,9.30
2022-11-16T18:25:04.817Z,9.20
2022-11-16T18:27:34.506Z,9.20
2022-11-16T18:30:03.912Z,9.20
2022-11-16T18:32:33.609Z,9.30
2022-11-16T18:35:02.629Z,9.30
2022-11-16T18:37:35.628Z,9.10
2022-11-16T18:40:10.981Z,9.10
2022-11-16T18:42:43.815Z,9.10
2022-11-16T18:45:16.645Z,9.00
2022-11-16T18:47:45.547Z,8.90
2022-11-16T18:50:20.122Z,8.90
2022-11-16T18:52:51.203Z,8.80
2022-11-16T18:55:19.547Z,8.90
2022-11-16T18:57:49.957Z,8.90
2022-11-16T19:00:27.788Z,8.90
2022-11-16T19:06:12.560Z,8.90
2022-11-16T19:09:03.339Z,8.90
2022-11-16T19:12:10.254Z,8.80
2022-11-16T19:14:44.183Z,8.80
2022-11-16T19:18:06.666Z,8.80
2022-11-16T19:21:01.693Z,8.80
2022-11-16T19:23:41.373Z,8.70
2022-11-16T19:26:14.943Z,8.70
2022-11-16T19:28:46.041Z,8.70
2022-11-16T19:31:16.602Z,8.70
2022-11-16T19:33:45.784Z,8.70
2022-11-16T19:36:48.883Z,8.70
2022-11-16T19:39:26.323Z,8.70
2022-11-16T19:42:09.018Z,8.70
2022-11-16T19:44:46.291Z,8.70
2022-11-16T19:47:14.820Z,8.70
2022-11-16T19:49:43.470Z,8.70
2022-11-16T19:52:16.090Z,8.70
2022-11-16T19:54:49.422Z,8.70
2022-11-16T19:57:26.413Z,8.70
2022-11-16T19:59:55.091Z,8.70
2022-11-16T20:02:23.304Z,8.70
2022-11-16T20:04:51.657Z,8.60
2022-11-16T20:07:20.333Z,8.70
2022-11-16T20:10:00.070Z,8.70
2022-11-16T20:12:28.515Z,8.70
2022-11-16T20:14:56.928Z,8.80
2022-11-16T20:17:29.079Z,8.80
2022-11-16T20:20:02.087Z,8.80
2022-11-16T20:22:30.388Z,8.90
2022-11-16T20:25:00.090Z,8.90
2022-11-16T20:27:29.670Z,8.80
2022-11-16T20:29:59.419Z,8.80
2022-11-16T20:32:28.071Z,8.90
2022-11-16T20:34:57.454Z,8.90
2022-11-16T20:37:32.343Z,8.90
2022-11-16T20:40:34.218Z,8.90
2022-11-16T20:43:04.159Z,8.90
2022-11-16T20:45:35.751Z,8.90
2022-11-16T20:48:05.472Z,8.90
2022-11-16T20:50:59.907Z,8.90
2022-11-16T20:56:41.550Z,8.90
2022-11-16T20:59:09.948Z,8.90
2022-11-16T21:01:39.192Z,8.80
2022-11-16T21:04:09.521Z,8.80
2022-11-16T21:06:37.976Z,8.80
2022-11-16T21:09:06.412Z,8.90
2022-11-16T21:12:09.968Z,8.90
2022-11-16T21:14:50.721Z,8.90
2022-11-16T21:20:46.401Z,9.00
2022-11-16T21:23:18.354Z,9.00
2022-11-16T21:25:50.162Z,9.00
2022-11-16T21:28:25.483Z,9.00
2022-11-16T21:31:19.048Z,9.00
2022-11-16T21:33:52.481Z,8.80
2022-11-16T21:36:27.741Z,8.80
2022-11-16T21:38:56.184Z,8.80
2022-11-16T21:41:27.295Z,8.80
2022-11-16T21:44:01.315Z,8.70
2022-11-16T21:46:33.688Z,8.80
2022-11-16T21:49:03.358Z,8.80
2022-11-16T21:51:32.509Z,8.80
2022-11-16T21:54:02.100Z,8.80
2022-11-16T22:00:02.653Z,8.90
2022-11-16T22:02:35.233Z,8.90
2022-11-16T22:08:06.218Z,8.80
2022-11-16T22:10:38.862Z,8.80
2022-11-16T22:13:07.452Z,8.90
2022-11-16T22:15:35.887Z,8.90
2022-11-16T22:18:04.752Z,8.90
2022-11-16T22:20:33.343Z,8.90
2022-11-16T22:23:08.531Z,8.90
2022-11-16T22:25:39.754Z,8.90
2022-11-16T22:34:48.365Z,8.80
2022-11-16T22:37:16.845Z,8.80
2022-11-16T22:39:51.669Z,8.80
2022-11-16T22:42:39.870Z,8.70
2022-11-16T22:45:12.811Z,8.90
2022-11-16T22:47:45.454Z,8.90
2022-11-16T22:56:15.184Z,8.80
2022-11-16T22:59:01.857Z,8.80
2022-11-16T23:01:46.520Z,8.80
2022-11-16T23:04:37.272Z,8.70
2022-11-16T23:07:13.388Z,8.70
2022-11-16T23:09:49.661Z,8.60
2022-11-16T23:12:40.602Z,8.60
2022-11-16T23:15:35.550Z,8.60
2022-11-16T23:18:12.361Z,8.60
2022-11-16T23:21:01.105Z,8.60
2022-11-16T23:23:48.678Z,8.60
2022-11-16T23:26:42.859Z,8.50
2022-11-16T23:29:12.553Z,8.60
2022-11-16T23:31:54.638Z,8.50
2022-11-16T23:34:26.477Z,8.60
2022-11-16T23:36:56.268Z,8.50
2022-11-16T23:39:31.063Z,8.50
2022-11-16T23:42:20.311Z,8.50
2022-11-16T23:44:53.024Z,8.50
2022-11-16T23:47:27.231Z,8.50
2022-11-16T23:50:02.029Z,8.50
2022-11-16T23:52:32.503Z,8.50
2022-11-16T23:55:02.452Z,8.40
2022-11-16T23:57:32.631Z,8.40
